地図

経路データ

SID SEASON NUMBER BASIN SUBBASIN NAME ISO_TIME NATURE LAT LON WMO_WIND WMO_PRES WMO_AGENCY TRACK_TYPE DIST2LAND LANDFALL IFLAG USA_AGENCY USA_ATCF_ID USA_LAT USA_LON USA_RECORD USA_STATUS USA_WIND USA_PRES USA_SSHS USA_R34_NE USA_R34_SE USA_R34_SW USA_R34_NW USA_R50_NE USA_R50_SE USA_R50_SW USA_R50_NW USA_R64_NE USA_R64_SE USA_R64_SW USA_R64_NW USA_POCI USA_ROCI USA_RMW USA_EYE TOKYO_LAT TOKYO_LON TOKYO_GRADE TOKYO_WIND TOKYO_PRES TOKYO_R50_DIR TOKYO_R50_LONG TOKYO_R50_SHORT TOKYO_R30_DIR TOKYO_R30_LONG TOKYO_R30_SHORT TOKYO_LAND CMA_LAT CMA_LON CMA_CAT CMA_WIND CMA_PRES HKO_LAT HKO_LON HKO_CAT HKO_WIND HKO_PRES NEWDELHI_LAT NEWDELHI_LON NEWDELHI_GRADE NEWDELHI_WIND NEWDELHI_PRES NEWDELHI_CI NEWDELHI_DP NEWDELHI_POCI REUNION_LAT REUNION_LON REUNION_TYPE REUNION_WIND REUNION_PRES REUNION_TNUM REUNION_CI REUNION_RMW REUNION_R34_NE REUNION_R34_SE REUNION_R34_SW REUNION_R34_NW REUNION_R50_NE REUNION_R50_SE REUNION_R50_SW REUNION_R50_NW REUNION_R64_NE REUNION_R64_SE REUNION_R64_SW REUNION_R64_NW BOM_LAT BOM_LON BOM_TYPE BOM_WIND BOM_PRES BOM_TNUM BOM_CI BOM_RMW BOM_R34_NE BOM_R34_SE BOM_R34_SW BOM_R34_NW BOM_R50_NE BOM_R50_SE BOM_R50_SW BOM_R50_NW BOM_R64_NE BOM_R64_SE BOM_R64_SW BOM_R64_NW BOM_ROCI BOM_POCI BOM_EYE BOM_POS_METHOD BOM_PRES_METHOD NADI_LAT NADI_LON NADI_CAT NADI_WIND NADI_PRES WELLINGTON_LAT WELLINGTON_LON WELLINGTON_WIND WELLINGTON_PRES DS824_LAT DS824_LON DS824_STAGE DS824_WIND DS824_PRES TD9636_LAT TD9636_LON TD9636_STAGE TD9636_WIND TD9636_PRES TD9635_LAT TD9635_LON TD9635_WIND TD9635_PRES TD9635_ROCI NEUMANN_LAT NEUMANN_LON NEUMANN_CLASS NEUMANN_WIND NEUMANN_PRES MLC_LAT MLC_LON MLC_CLASS MLC_WIND MLC_PRES USA_GUST BOM_GUST BOM_GUST_PER REUNION_GUST REUNION_GUST_PER USA_SEAHGT USA_SEARAD_NE USA_SEARAD_SE USA_SEARAD_SW USA_SEARAD_NW STORM_SPEED STORM_DIR
1934338N09146 1934 84 WP MM NOT_NAMED 1934-12-04 10:00:00 NR 9.10000 146.000 main 1256 1256 __________O___ -1 9.10000 146.000 7 3 279
1934338N09146 1934 84 WP MM NOT_NAMED 1934-12-04 12:00:00 NR 9.11459 145.910 main 1257 1257 __________P___ -1 9.11459 145.910 7 3 286
1934338N09146 1934 84 WP MM NOT_NAMED 1934-12-04 15:00:00 NR 9.17479 145.734 main 1270 1270 __________P___ -1 9.17479 145.734 7 5 296
1934338N09146 1934 84 WP MM NOT_NAMED 1934-12-04 18:00:00 NR 9.33348 145.452 main 1283 1284 __________P___ -1 9.33348 145.452 7 9 303
1934338N09146 1934 84 WP MM NOT_NAMED 1934-12-04 21:00:00 NR 9.64954 145.000 main 1322 1334 __________P___ -1 9.64954 145.000 7 12 306
1934338N09146 1934 84 WP MM NOT_NAMED 1934-12-04 22:00:00 NR 9.80000 144.800 main 1348 1348 __________O___ -1 9.80000 144.800 7 17 308
1934338N09146 1934 84 WP MM NOT_NAMED 1934-12-05 00:00:00 NR 10.1747 144.319 main 1401 1401 __________P___ -1 10.1747 144.319 7 21 309
1934338N09146 1934 84 WP MM NOT_NAMED 1934-12-05 03:00:00 NR 10.8817 143.432 main 1499 1499 __________P___ -1 10.8817 143.432 7 24 309
1934338N09146 1934 84 WP MM NOT_NAMED 1934-12-05 06:00:00 NR 11.6924 142.417 main 1560 1560 __________P___ -1 11.6924 142.417 7 26 309
1934338N09146 1934 84 WP MM NOT_NAMED 1934-12-05 09:00:00 NR 12.5288 141.352 main 1609 1611 __________P___ -1 12.5288 141.352 7 27 309
1934338N09146 1934 84 WP MM NOT_NAMED 1934-12-05 10:00:00 NR 12.8000 141.000 main 1624 1597 __________O___ -1 12.8000 141.000 7 26 307
1934338N09146 1934 84 WP MM NOT_NAMED 1934-12-05 12:00:00 NR 13.3105 140.274 main 1597 1493 __________P___ -1 13.3105 140.274 7 26 305
1934338N09146 1934 84 WP MM NOT_NAMED 1934-12-05 15:00:00 NR 14.0643 139.175 main 1495 1402 __________P___ -1 14.0643 139.175 7 25 305
1934338N09146 1934 84 WP MM NOT_NAMED 1934-12-05 18:00:00 NR 14.7746 138.156 main 1404 1323 __________P___ -1 14.7746 138.156 7 23 307
1934338N09146 1934 84 WP MM NOT_NAMED 1934-12-05 21:00:00 NR 15.4101 137.320 main 1323 1308 __________P___ -1 15.4101 137.320 7 20 309
1934338N09146 1934 84 WP MM NOT_NAMED 1934-12-05 22:00:00 NR 15.6000 137.100 main 1308 1284 __________O___ -1 15.6000 137.100 7 15 314
1934338N09146 1934 84 WP MM NOT_NAMED 1934-12-06 00:00:00 NR 15.9251 136.772 main 1287 1267 __________P___ -1 15.9251 136.772 7 11 321
1934338N09146 1934 84 WP MM NOT_NAMED 1934-12-06 03:00:00 NR 16.3390 136.484 main 1271 1265 __________P___ -1 16.3390 136.484 7 9 334
1934338N09146 1934 84 WP MM NOT_NAMED 1934-12-06 06:00:00 NR 16.7056 136.378 main 1277 1277 __________P___ -1 16.7056 136.378 7 7 353
1934338N09146 1934 84 WP MM NOT_NAMED 1934-12-06 09:00:00 NR 17.0708 136.385 main 1294 1294 __________P___ -1 17.0708 136.385 7 7 0
1934338N09146 1934 84 WP MM NOT_NAMED 1934-12-06 10:00:00 NR 17.2000 136.400 main 1299 1299 __________O___ -1 17.2000 136.400 7 8 7
1934338N09146 1934 84 WP MM NOT_NAMED 1934-12-06 12:00:00 NR 17.4768 136.437 main 1313 1313 __________P___ -1 17.4768 136.437 7 9 8
1934338N09146 1934 84 WP MM NOT_NAMED 1934-12-06 15:00:00 NR 17.9315 136.505 main 1342 1347 __________P___ -1 17.9315 136.505 7 10 9
1934338N09146 1934 84 WP MM NOT_NAMED 1934-12-06 18:00:00 NR 18.4204 136.585 main 1377 1377 __________P___ -1 18.4204 136.585 7 10 9
1934338N09146 1934 84 WP MM NOT_NAMED 1934-12-06 21:00:00 NR 18.9288 136.671 main 1414 1420 __________P___ -1 18.9288 136.671 7 10 9
1934338N09146 1934 84 WP MM NOT_NAMED 1934-12-06 22:00:00 NR 19.1000 136.700 main 1425 __________O___ -1 19.1000 136.700 7 10 7

デジタル台風データ・検索

IBTrACS Databaseについて

本データベースは、米国NOAAが公開する1842年以降の世界の熱帯低気圧のベストトラックデータアーカイブInternational Best Track Archive for Climate Stewardship (IBTrACS)を、ウェブで閲覧しやすい形式に変換したものです。

最終更新日:2021-12-03